createdAt,value
2023-03-23T00:00:03.747Z,9.22
2023-03-23T00:02:37.910Z,9.22
2023-03-23T00:05:09.737Z,9.22
2023-03-23T00:07:38.264Z,9.19
2023-03-23T00:10:06.553Z,9.18
2023-03-23T00:12:37.316Z,9.18
2023-03-23T00:15:07.858Z,9.17
2023-03-23T00:17:36.667Z,9.16
2023-03-23T00:20:07.546Z,9.14
2023-03-23T00:22:39.851Z,9.14
2023-03-23T00:25:10.589Z,9.15
2023-03-23T00:27:38.566Z,9.16
2023-03-23T00:30:07.803Z,9.16
2023-03-23T00:32:35.618Z,9.19
2023-03-23T00:35:03.757Z,9.21
2023-03-23T00:37:31.649Z,9.23
2023-03-23T00:39:59.725Z,9.24
2023-03-23T00:42:28.384Z,9.28
2023-03-23T00:45:02.411Z,9.28
2023-03-23T00:47:30.732Z,9.30
2023-03-23T00:49:59.209Z,9.31
2023-03-23T00:52:27.895Z,9.35
2023-03-23T00:54:56.191Z,9.35
2023-03-23T00:57:26.469Z,9.39
2023-03-23T00:59:54.373Z,9.41
2023-03-23T01:02:33.594Z,9.46
2023-03-23T01:05:01.436Z,9.49
2023-03-23T01:07:30.533Z,9.52
2023-03-23T01:09:59.832Z,9.56
2023-03-23T01:12:28.477Z,9.58
2023-03-23T01:14:56.921Z,9.59
2023-03-23T01:17:25.111Z,9.60
2023-03-23T01:19:53.111Z,9.62
2023-03-23T01:22:21.067Z,9.63
2023-03-23T01:24:48.974Z,9.64
2023-03-23T01:27:16.907Z,9.69
2023-03-23T01:29:44.864Z,9.70
2023-03-23T01:32:12.728Z,9.71
2023-03-23T01:34:40.619Z,9.70
2023-03-23T01:37:10.881Z,9.71
2023-03-23T01:39:39.730Z,9.72
2023-03-23T01:42:07.851Z,9.73
2023-03-23T01:44:35.696Z,9.74
2023-03-23T01:47:03.945Z,9.74
2023-03-23T01:49:46.552Z,9.76
2023-03-23T01:52:26.068Z,9.74
2023-03-23T01:54:57.712Z,9.76
2023-03-23T01:57:29.148Z,9.75
2023-03-23T02:00:00.511Z,9.76
2023-03-23T02:02:29.740Z,9.74
2023-03-23T02:05:04.078Z,9.74
2023-03-23T02:07:33.879Z,9.76
2023-03-23T02:10:02.829Z,9.78
2023-03-23T02:12:30.804Z,9.80
2023-03-23T02:14:59.208Z,9.81
2023-03-23T02:17:44.230Z,9.82
2023-03-23T02:20:21.110Z,9.83
2023-03-23T02:23:21.952Z,9.84
2023-03-23T02:25:58.806Z,9.86
2023-03-23T02:28:44.534Z,9.88
2023-03-23T02:31:26.510Z,9.88
2023-03-23T02:34:04.020Z,9.91
2023-03-23T02:36:41.524Z,9.90
2023-03-23T02:39:20.318Z,9.88
2023-03-23T02:41:55.839Z,9.89
2023-03-23T02:44:27.651Z,9.88
2023-03-23T02:46:56.836Z,9.89
2023-03-23T02:49:27.609Z,9.88
2023-03-23T02:51:58.774Z,9.87
2023-03-23T02:54:28.484Z,9.87
2023-03-23T02:56:58.162Z,9.83
2023-03-23T02:59:26.088Z,9.78
2023-03-23T03:02:00.651Z,9.72
2023-03-23T03:04:30.952Z,9.68
2023-03-23T03:07:32.533Z,9.61
2023-03-23T03:10:25.115Z,9.60
2023-03-23T03:12:57.484Z,9.57
2023-03-23T03:15:43.648Z,9.56
2023-03-23T03:18:17.108Z,9.53
2023-03-23T03:20:51.372Z,9.53
2023-03-23T03:23:22.259Z,9.53
2023-03-23T03:25:51.187Z,9.55
2023-03-23T03:28:23.728Z,9.56
2023-03-23T03:30:58.590Z,9.58
2023-03-23T03:33:29.931Z,9.58
2023-03-23T03:36:00.468Z,9.58
2023-03-23T03:38:29.336Z,9.55
2023-03-23T03:40:59.486Z,9.55
2023-03-23T03:43:28.020Z,9.51
2023-03-23T03:45:55.844Z,9.50
2023-03-23T03:48:23.748Z,9.48
2023-03-23T03:50:54.442Z,9.46
2023-03-23T03:53:22.568Z,9.43
2023-03-23T03:56:02.309Z,9.40
2023-03-23T03:58:33.774Z,9.32
2023-03-23T04:01:02.076Z,9.29
2023-03-23T04:03:30.164Z,9.25
2023-03-23T04:05:58.637Z,9.18
2023-03-23T04:08:29.111Z,9.13
2023-03-23T04:10:57.289Z,9.10
2023-03-23T04:13:25.722Z,9.07
2023-03-23T04:16:07.299Z,9.07
2023-03-23T04:18:38.869Z,9.05
2023-03-23T04:21:10.394Z,9.03
2023-03-23T04:23:38.840Z,9.01
2023-03-23T04:26:06.734Z,8.99
2023-03-23T04:28:36.023Z,8.97
2023-03-23T04:31:06.211Z,8.95
2023-03-23T04:33:59.868Z,8.95
2023-03-23T04:36:24.565Z,8.95
2023-03-23T04:39:13.461Z,8.93
2023-03-23T04:41:42.359Z,8.93
2023-03-23T04:44:10.569Z,8.93
2023-03-23T04:46:38.964Z,8.92
2023-03-23T04:49:06.900Z,8.93
2023-03-23T04:51:34.795Z,8.96
2023-03-23T04:54:02.985Z,8.96
2023-03-23T04:56:30.888Z,8.98
2023-03-23T04:58:58.911Z,9.00
2023-03-23T05:01:29.963Z,9.03
2023-03-23T05:03:57.967Z,9.04
2023-03-23T05:06:25.901Z,9.09
2023-03-23T05:08:53.816Z,9.13
2023-03-23T05:11:21.895Z,9.18
2023-03-23T05:13:49.810Z,9.25
2023-03-23T05:16:17.806Z,9.27
2023-03-23T05:18:46.199Z,9.29
2023-03-23T05:21:14.162Z,9.30
2023-03-23T05:23:42.396Z,9.31
2023-03-23T05:26:10.366Z,9.35
2023-03-23T05:28:38.753Z,9.38
2023-03-23T05:31:07.161Z,9.35
2023-03-23T05:33:35.074Z,9.39
2023-03-23T05:36:03.096Z,9.41
2023-03-23T05:38:31.542Z,9.43
2023-03-23T05:41:03.452Z,9.45
2023-03-23T05:43:31.445Z,9.47
2023-03-23T05:45:59.364Z,9.48
2023-03-23T05:48:27.372Z,9.52
2023-03-23T05:50:55.271Z,9.52
2023-03-23T05:53:23.206Z,9.55
2023-03-23T05:55:51.342Z,9.58
2023-03-23T05:58:19.321Z,9.61
2023-03-23T06:00:48.993Z,9.62
2023-03-23T06:03:17.928Z,9.66
2023-03-23T06:05:47.403Z,9.71
2023-03-23T06:08:15.639Z,9.73
2023-03-23T06:10:43.532Z,9.78
2023-03-23T06:13:11.592Z,9.81
2023-03-23T06:15:40.037Z,9.84
2023-03-23T06:18:09.357Z,9.87
2023-03-23T06:20:38.236Z,9.90
2023-03-23T06:23:12.380Z,9.94
2023-03-23T06:25:42.053Z,9.96
2023-03-23T06:28:11.747Z,9.98
2023-03-23T06:30:39.871Z,10.00
2023-03-23T06:33:11.853Z,10.03
2023-03-23T06:35:40.120Z,10.04
2023-03-23T06:38:08.230Z,10.07
2023-03-23T06:40:36.092Z,10.10
2023-03-23T06:43:06.044Z,10.18
2023-03-23T06:45:33.976Z,10.26
2023-03-23T06:48:02.102Z,10.34
2023-03-23T06:50:30.645Z,10.41
2023-03-23T06:52:58.523Z,10.46
2023-03-23T06:55:27.210Z,10.54
2023-03-23T06:57:55.178Z,10.65
2023-03-23T07:00:23.112Z,10.74
2023-03-23T07:02:51.473Z,10.79
2023-03-23T07:05:19.494Z,10.89
2023-03-23T07:07:47.560Z,11.00
2023-03-23T07:10:15.607Z,11.10
2023-03-23T07:12:44.326Z,11.14
2023-03-23T07:15:13.255Z,11.25
2023-03-23T07:17:42.790Z,11.37
2023-03-23T07:20:11.289Z,11.61
2023-03-23T07:22:39.245Z,11.73
2023-03-23T07:25:07.450Z,11.85
2023-03-23T07:27:36.030Z,11.97
2023-03-23T07:30:03.989Z,12.10
2023-03-23T07:32:32.129Z,12.19
2023-03-23T07:35:00.110Z,12.28
2023-03-23T07:37:28.022Z,12.38
2023-03-23T07:39:55.868Z,12.52
2023-03-23T07:42:23.746Z,12.65
2023-03-23T07:44:51.759Z,12.79
2023-03-23T07:47:20.230Z,12.96
2023-03-23T07:50:02.582Z,13.15
2023-03-23T07:52:30.501Z,13.29
2023-03-23T07:54:58.513Z,13.42
2023-03-23T07:57:26.433Z,13.53
2023-03-23T07:59:54.295Z,13.66
2023-03-23T08:02:22.169Z,13.74
2023-03-23T08:04:50.101Z,13.85
2023-03-23T08:07:19.916Z,13.94
2023-03-23T08:09:51.068Z,14.02
2023-03-23T08:12:19.368Z,14.12
2023-03-23T08:14:47.289Z,14.19
2023-03-23T08:17:15.121Z,14.25
2023-03-23T08:19:43.077Z,14.34
2023-03-23T08:22:11.958Z,14.43
2023-03-23T08:24:40.137Z,14.54
2023-03-23T08:27:09.267Z,14.59
2023-03-23T08:29:37.512Z,14.63
2023-03-23T08:32:05.612Z,14.71
2023-03-23T08:34:33.555Z,14.77
2023-03-23T08:37:01.539Z,14.85
2023-03-23T08:39:30.305Z,14.95
2023-03-23T08:41:58.401Z,15.04
2023-03-23T08:44:26.537Z,15.15
2023-03-23T08:46:59.011Z,15.26
2023-03-23T08:49:27.907Z,15.34
2023-03-23T08:51:55.867Z,15.46
2023-03-23T08:54:23.734Z,15.60
2023-03-23T08:56:51.612Z,15.69
2023-03-23T08:59:19.594Z,15.81
2023-03-23T09:01:47.985Z,15.89
2023-03-23T09:04:17.806Z,15.97
2023-03-23T09:06:46.768Z,16.04
2023-03-23T09:09:15.077Z,16.11
2023-03-23T09:11:42.993Z,16.18
2023-03-23T09:14:10.972Z,16.24
2023-03-23T09:16:38.883Z,16.25
2023-03-23T09:19:06.866Z,16.33
2023-03-23T09:21:34.708Z,16.41
2023-03-23T09:24:03.992Z,16.47
2023-03-23T09:26:33.596Z,16.55
2023-03-23T09:29:01.604Z,16.67
2023-03-23T09:31:29.897Z,16.77
2023-03-23T09:34:01.349Z,16.82
2023-03-23T09:36:31.691Z,16.87
2023-03-23T09:39:00.696Z,16.88
2023-03-23T09:41:58.277Z,16.93
2023-03-23T09:44:50.120Z,16.94
2023-03-23T09:47:34.425Z,16.91
2023-03-23T09:50:07.650Z,16.81
2023-03-23T09:52:47.446Z,16.71
2023-03-23T09:55:18.480Z,16.64
2023-03-23T09:58:02.052Z,16.59
2023-03-23T10:00:37.860Z,16.55
2023-03-23T10:03:21.055Z,16.49
2023-03-23T10:05:49.625Z,16.46
2023-03-23T10:08:25.211Z,16.49
2023-03-23T10:11:20.657Z,16.53
2023-03-23T10:14:12.495Z,16.44
2023-03-23T10:16:45.148Z,16.44
2023-03-23T10:19:17.725Z,16.49
2023-03-23T10:22:00.665Z,16.55
2023-03-23T10:24:37.879Z,16.64
2023-03-23T10:27:26.575Z,16.73
2023-03-23T10:30:17.585Z,16.77
2023-03-23T10:32:58.975Z,16.79
2023-03-23T10:35:32.641Z,16.88
2023-03-23T10:38:13.145Z,16.95
2023-03-23T10:40:55.398Z,17.05
2023-03-23T10:43:23.823Z,17.09
2023-03-23T10:46:00.915Z,17.16
2023-03-23T10:48:35.556Z,17.21
2023-03-23T10:51:07.493Z,17.24
2023-03-23T10:53:40.506Z,17.19
2023-03-23T10:56:24.810Z,17.20
2023-03-23T10:58:53.899Z,17.21
2023-03-23T11:01:35.060Z,17.22
2023-03-23T11:04:04.049Z,17.24
2023-03-23T11:06:36.056Z,17.24
2023-03-23T11:09:21.356Z,17.26
2023-03-23T11:12:01.907Z,17.24
2023-03-23T11:14:41.238Z,17.18
2023-03-23T11:17:27.714Z,17.10
2023-03-23T11:19:58.994Z,17.11
2023-03-23T11:22:35.455Z,17.18
2023-03-23T11:25:06.973Z,17.23
2023-03-23T11:27:36.239Z,17.20
2023-03-23T11:30:13.003Z,17.21
2023-03-23T11:32:46.738Z,17.24
2023-03-23T11:35:22.114Z,17.28
2023-03-23T11:37:56.106Z,17.36
2023-03-23T11:40:30.273Z,17.39
2023-03-23T11:43:01.753Z,17.48
2023-03-23T11:45:43.500Z,17.52
2023-03-23T11:48:40.374Z,17.55
2023-03-23T11:51:13.792Z,17.60
2023-03-23T11:54:12.818Z,17.75
2023-03-23T11:56:44.133Z,17.87
2023-03-23T11:59:31.785Z,17.93
2023-03-23T12:02:16.881Z,17.99
2023-03-23T12:05:12.859Z,18.10
2023-03-23T12:07:57.003Z,18.23
2023-03-23T12:10:40.526Z,18.35
2023-03-23T12:13:38.634Z,18.29
2023-03-23T12:16:46.112Z,18.38
2023-03-23T12:19:13.877Z,18.50
2023-03-23T12:21:51.003Z,18.57
2023-03-23T12:24:36.990Z,18.58
2023-03-23T12:27:21.585Z,18.59
2023-03-23T12:30:25.478Z,18.60
2023-03-23T12:33:16.394Z,18.60
2023-03-23T12:36:10.297Z,18.59
2023-03-23T12:39:01.082Z,18.62
2023-03-23T12:41:52.442Z,18.61
2023-03-23T12:44:28.376Z,18.57
2023-03-23T12:47:09.418Z,18.49
2023-03-23T12:49:43.740Z,18.52
2023-03-23T12:52:24.631Z,18.58
2023-03-23T12:55:09.862Z,18.52
2023-03-23T12:58:02.454Z,18.48
2023-03-23T13:00:48.880Z,18.49
2023-03-23T13:03:41.043Z,18.44
2023-03-23T13:06:22.297Z,18.26
2023-03-23T13:09:15.403Z,18.20
2023-03-23T13:11:48.947Z,18.22
2023-03-23T13:14:34.378Z,18.23
2023-03-23T13:17:36.636Z,18.25
2023-03-23T13:20:21.219Z,18.24
2023-03-23T13:23:24.556Z,18.23
2023-03-23T13:26:05.825Z,18.26
2023-03-23T13:28:50.575Z,18.31
2023-03-23T13:31:26.660Z,18.27
2023-03-23T13:34:00.193Z,18.25
2023-03-23T13:37:00.596Z,18.24
2023-03-23T13:39:52.315Z,18.18
2023-03-23T13:42:26.113Z,17.98
2023-03-23T13:44:54.206Z,17.85
2023-03-23T13:47:30.859Z,17.70
2023-03-23T13:50:00.256Z,17.53
2023-03-23T13:52:46.528Z,17.39
2023-03-23T13:55:17.499Z,17.20
2023-03-23T13:58:04.392Z,17.05
2023-03-23T14:00:32.323Z,16.93
2023-03-23T14:03:12.308Z,16.81
2023-03-23T14:05:47.673Z,16.72
2023-03-23T14:08:24.440Z,16.60
2023-03-23T14:10:52.281Z,16.50
2023-03-23T14:13:25.845Z,16.40
2023-03-23T14:16:05.629Z,16.30
2023-03-23T14:18:42.124Z,16.19
2023-03-23T14:21:34.645Z,16.13
2023-03-23T14:24:27.083Z,16.10
2023-03-23T14:27:04.100Z,16.06
2023-03-23T14:29:32.191Z,16.00
2023-03-23T14:32:01.429Z,16.03
2023-03-23T14:34:33.810Z,16.04
2023-03-23T14:37:03.150Z,16.07
2023-03-23T14:39:36.222Z,16.08
2023-03-23T14:42:07.692Z,16.09
2023-03-23T14:44:37.758Z,16.10
2023-03-23T14:47:14.582Z,16.09
2023-03-23T14:49:44.936Z,16.11
2023-03-23T14:52:20.437Z,16.11
2023-03-23T14:54:48.762Z,16.10
2023-03-23T14:57:20.138Z,16.13
2023-03-23T14:59:50.133Z,16.15
2023-03-23T15:02:38.335Z,16.18
2023-03-23T15:05:20.041Z,16.22
2023-03-23T15:07:52.895Z,16.26
2023-03-23T15:10:23.393Z,16.29
2023-03-23T15:12:54.356Z,16.34
2023-03-23T15:15:27.451Z,16.36
2023-03-23T15:17:55.719Z,16.37
2023-03-23T15:20:26.670Z,16.40
2023-03-23T15:22:55.381Z,16.45
2023-03-23T15:25:30.920Z,16.47
2023-03-23T15:28:16.622Z,16.48
2023-03-23T15:30:57.193Z,16.49
2023-03-23T15:33:42.298Z,16.53
2023-03-23T15:36:18.096Z,16.54
2023-03-23T15:38:49.883Z,16.55
2023-03-23T15:41:27.278Z,16.60
2023-03-23T15:44:00.968Z,16.64
2023-03-23T15:46:30.753Z,16.69
2023-03-23T15:48:58.617Z,16.71
2023-03-23T15:51:29.604Z,16.72
2023-03-23T15:54:02.882Z,16.72
2023-03-23T15:56:33.639Z,16.71
2023-03-23T15:59:02.651Z,16.72
2023-03-23T16:01:32.811Z,16.74
2023-03-23T16:04:22.656Z,16.76
2023-03-23T16:06:58.835Z,16.70
2023-03-23T16:09:27.583Z,16.69
2023-03-23T16:11:55.605Z,16.68
2023-03-23T16:14:23.635Z,16.67
2023-03-23T16:16:54.302Z,16.65
2023-03-23T16:19:25.868Z,16.60
2023-03-23T16:21:53.815Z,16.61
2023-03-23T16:24:22.117Z,16.58
2023-03-23T16:26:50.230Z,16.59
2023-03-23T16:29:34.342Z,16.57
2023-03-23T16:32:07.838Z,16.56
2023-03-23T16:34:36.991Z,16.54
2023-03-23T16:37:05.053Z,16.55
2023-03-23T16:39:32.939Z,16.46
2023-03-23T16:42:00.916Z,16.47
2023-03-23T16:44:28.921Z,16.43
2023-03-23T16:46:57.131Z,16.46
2023-03-23T16:49:24.982Z,16.46
2023-03-23T16:51:52.900Z,16.47
2023-03-23T16:54:20.872Z,16.46
2023-03-23T16:56:50.339Z,16.45
2023-03-23T16:59:18.250Z,16.45
2023-03-23T17:01:46.214Z,16.44
2023-03-23T17:04:14.188Z,16.41
2023-03-23T17:06:42.380Z,16.42
2023-03-23T17:09:11.200Z,16.39
2023-03-23T17:11:39.161Z,16.38
2023-03-23T17:14:07.211Z,16.35
2023-03-23T17:16:35.404Z,16.29
2023-03-23T17:19:03.443Z,16.26
2023-03-23T17:21:31.362Z,16.21
2023-03-23T17:23:59.296Z,16.17
2023-03-23T17:26:27.429Z,16.13
2023-03-23T17:28:55.437Z,16.08
2023-03-23T17:31:23.540Z,16.02
2023-03-23T17:33:52.964Z,15.96
2023-03-23T17:36:21.223Z,15.89
2023-03-23T17:38:49.271Z,15.85
2023-03-23T17:41:17.775Z,15.79
2023-03-23T17:43:45.816Z,15.74
2023-03-23T17:46:13.781Z,15.69
2023-03-23T17:48:41.963Z,15.63
2023-03-23T17:51:09.835Z,15.60
2023-03-23T17:53:38.380Z,15.58
2023-03-23T17:56:07.751Z,15.55
2023-03-23T17:58:36.843Z,15.52
2023-03-23T18:01:05.842Z,15.47
2023-03-23T18:03:34.075Z,15.44
2023-03-23T18:06:04.795Z,15.41
2023-03-23T18:08:33.347Z,15.37
2023-03-23T18:11:01.779Z,15.36
2023-03-23T18:13:33.912Z,15.30
2023-03-23T18:16:02.889Z,15.28
2023-03-23T18:18:31.552Z,15.25
2023-03-23T18:21:09.050Z,15.20
2023-03-23T18:23:45.872Z,15.17
2023-03-23T18:26:17.913Z,15.12
2023-03-23T18:28:45.900Z,15.08
2023-03-23T18:31:16.594Z,15.05
2023-03-23T18:33:48.037Z,15.00
2023-03-23T18:36:18.539Z,14.95
2023-03-23T18:38:47.750Z,14.89
2023-03-23T18:41:16.785Z,14.85
2023-03-23T18:43:45.416Z,14.82
2023-03-23T18:46:13.527Z,14.77
2023-03-23T18:48:41.477Z,14.70
2023-03-23T18:51:10.505Z,14.63
2023-03-23T18:53:38.552Z,14.57
2023-03-23T18:56:12.361Z,14.54
2023-03-23T18:58:40.620Z,14.49
2023-03-23T19:01:11.845Z,14.44
2023-03-23T19:03:41.562Z,14.40
2023-03-23T19:06:20.107Z,14.34
2023-03-23T19:08:49.354Z,14.31
2023-03-23T19:11:18.374Z,14.27
2023-03-23T19:13:57.922Z,14.24
2023-03-23T19:16:29.575Z,14.21
2023-03-23T19:18:57.629Z,14.18
2023-03-23T19:21:26.375Z,14.18
2023-03-23T19:23:56.822Z,14.16
2023-03-23T19:26:29.168Z,14.14
2023-03-23T19:31:30.132Z,14.09
2023-03-23T19:33:58.233Z,14.08
2023-03-23T19:36:26.873Z,14.05
2023-03-23T19:39:02.896Z,14.02
2023-03-23T19:41:31.185Z,14.00
2023-03-23T19:43:59.742Z,13.96
2023-03-23T19:46:30.271Z,13.94
2023-03-23T19:48:59.402Z,13.91
2023-03-23T19:51:28.704Z,13.85
2023-03-23T19:53:58.294Z,13.82
2023-03-23T19:56:29.481Z,13.74
2023-03-23T19:58:58.310Z,13.65
2023-03-23T20:01:26.398Z,13.53
2023-03-23T20:03:57.206Z,13.47
2023-03-23T20:06:29.327Z,13.37
2023-03-23T20:09:00.048Z,13.31
2023-03-23T20:11:29.571Z,13.23
2023-03-23T20:13:58.078Z,13.18
2023-03-23T20:16:26.811Z,13.09
2023-03-23T20:18:55.570Z,13.03
2023-03-23T20:21:26.003Z,13.01
2023-03-23T20:23:56.516Z,12.93
2023-03-23T20:26:31.291Z,12.89
2023-03-23T20:28:59.748Z,12.83
2023-03-23T20:31:31.723Z,12.80
2023-03-23T20:34:04.997Z,12.74
2023-03-23T20:36:41.484Z,12.69
2023-03-23T20:39:16.330Z,12.65
2023-03-23T20:41:44.941Z,12.59
2023-03-23T20:44:17.155Z,12.50
2023-03-23T20:46:47.122Z,12.41
2023-03-23T20:49:17.133Z,12.33
2023-03-23T20:51:46.172Z,12.27
2023-03-23T20:54:17.066Z,12.24
2023-03-23T20:56:46.114Z,12.18
2023-03-23T20:59:15.299Z,12.12
2023-03-23T21:01:44.112Z,12.07
2023-03-23T21:04:16.505Z,12.04
2023-03-23T21:06:45.693Z,11.99
2023-03-23T21:09:15.372Z,11.95
2023-03-23T21:11:44.649Z,11.94
2023-03-23T21:14:12.873Z,11.92
2023-03-23T21:16:42.038Z,11.89
2023-03-23T21:19:10.978Z,11.87
2023-03-23T21:21:55.392Z,11.85
2023-03-23T21:24:27.798Z,11.82
2023-03-23T21:26:58.562Z,11.83
2023-03-23T21:29:26.712Z,11.81
2023-03-23T21:32:05.318Z,11.81
2023-03-23T21:34:36.105Z,11.80
2023-03-23T21:37:04.036Z,11.77
2023-03-23T21:39:32.242Z,11.78
2023-03-23T21:42:00.964Z,11.77
2023-03-23T21:44:28.821Z,11.76
2023-03-23T21:46:56.737Z,11.76
2023-03-23T21:49:24.756Z,11.71
2023-03-23T21:51:52.723Z,11.67
2023-03-23T21:54:22.581Z,11.68
2023-03-23T21:56:50.695Z,11.62
2023-03-23T21:59:18.989Z,11.58
2023-03-23T22:01:46.893Z,11.56
2023-03-23T22:04:15.158Z,11.53
2023-03-23T22:06:43.739Z,11.51
2023-03-23T22:09:12.192Z,11.50
2023-03-23T22:11:40.579Z,11.44
2023-03-23T22:14:08.832Z,11.42
2023-03-23T22:16:37.233Z,11.37
2023-03-23T22:19:05.857Z,11.31
2023-03-23T22:21:34.001Z,11.26
2023-03-23T22:24:02.464Z,11.23
2023-03-23T22:26:31.662Z,11.19
2023-03-23T22:29:01.883Z,11.16
2023-03-23T22:31:34.080Z,11.13
2023-03-23T22:34:02.894Z,11.12
2023-03-23T22:36:31.954Z,11.11
2023-03-23T22:39:00.565Z,11.10
2023-03-23T22:41:39.312Z,11.09
2023-03-23T22:44:12.944Z,11.08
2023-03-23T22:46:41.519Z,11.06
2023-03-23T22:49:09.744Z,11.07
2023-03-23T22:51:39.052Z,11.05
2023-03-23T22:54:07.493Z,11.04
2023-03-23T22:56:35.832Z,10.99
2023-03-23T22:59:04.059Z,11.00
2023-03-23T23:01:32.401Z,10.99
2023-03-23T23:04:00.601Z,10.96
2023-03-23T23:06:28.992Z,10.95
2023-03-23T23:08:56.940Z,10.94
2023-03-23T23:11:26.922Z,10.92
2023-03-23T23:13:55.115Z,10.89
2023-03-23T23:16:23.956Z,10.85
2023-03-23T23:18:52.013Z,10.85
2023-03-23T23:21:22.583Z,10.85
2023-03-23T23:23:52.418Z,10.83
2023-03-23T23:26:20.770Z,10.79
2023-03-23T23:28:49.731Z,10.81
2023-03-23T23:31:30.433Z,10.81
2023-03-23T23:34:00.681Z,10.81
2023-03-23T23:36:31.135Z,10.79
2023-03-23T23:39:01.824Z,10.73
2023-03-23T23:41:31.495Z,10.71
2023-03-23T23:44:00.197Z,10.71
2023-03-23T23:46:29.166Z,10.68
2023-03-23T23:48:57.736Z,10.69
2023-03-23T23:51:28.700Z,10.65
2023-03-23T23:53:59.823Z,10.67
2023-03-23T23:56:28.100Z,10.69
2023-03-23T23:58:56.232Z,10.69
